createdAt,value
2022-11-16T00:00:44.897Z,63.28
2022-11-16T00:04:06.100Z,62.35
2022-11-16T00:07:22.880Z,61.48
2022-11-16T00:10:39.383Z,63.50
2022-11-16T00:13:55.895Z,65.33
2022-11-16T00:17:13.183Z,63.25
2022-11-16T00:20:31.067Z,60.05
2022-11-16T00:23:48.143Z,61.08
2022-11-16T00:27:05.549Z,61.88
2022-11-16T00:30:24.089Z,63.63
2022-11-16T00:33:41.328Z,62.50
2022-11-16T00:37:01.686Z,63.00
2022-11-16T00:40:20.971Z,62.65
2022-11-16T00:43:38.203Z,66.35
2022-11-16T00:46:54.998Z,65.08
2022-11-16T00:50:12.389Z,64.28
2022-11-16T00:53:29.560Z,65.08
2022-11-16T00:56:46.652Z,67.30
2022-11-16T01:00:03.595Z,65.60
2022-11-16T01:03:21.978Z,65.48
2022-11-16T01:06:38.343Z,66.38
2022-11-16T01:09:54.731Z,65.80
2022-11-16T01:13:14.228Z,64.53
2022-11-16T01:16:33.693Z,64.10
2022-11-16T01:19:50.856Z,62.98
2022-11-16T01:23:07.430Z,63.83
2022-11-16T01:26:24.463Z,63.35
2022-11-16T01:29:42.255Z,64.20
2022-11-16T01:32:58.676Z,65.28
2022-11-16T01:36:19.578Z,65.55
2022-11-16T01:39:36.673Z,65.18
2022-11-16T01:42:54.102Z,64.98
2022-11-16T01:46:10.683Z,65.25
2022-11-16T01:49:31.616Z,65.10
2022-11-16T01:52:53.922Z,66.13
2022-11-16T01:56:12.791Z,64.55
2022-11-16T01:59:31.952Z,63.80
2022-11-16T02:02:50.189Z,64.93
2022-11-16T02:06:21.341Z,61.55
2022-11-16T02:09:59.805Z,64.18
2022-11-16T02:13:34.250Z,64.45
2022-11-16T02:16:57.764Z,64.40
2022-11-16T02:20:59.732Z,64.13
2022-11-16T02:25:02.011Z,65.78
2022-11-16T02:28:36.380Z,64.53
2022-11-16T02:31:59.645Z,63.43
2022-11-16T02:35:22.804Z,62.58
2022-11-16T02:41:57.811Z,63.08
2022-11-16T02:45:21.424Z,62.65
2022-11-16T02:48:43.873Z,63.28
2022-11-16T02:52:03.553Z,65.00
2022-11-16T02:55:20.784Z,68.53
2022-11-16T02:58:37.408Z,72.05
2022-11-16T03:01:59.916Z,72.65
2022-11-16T03:05:21.492Z,69.73
2022-11-16T03:08:43.841Z,72.08
2022-11-16T03:12:04.794Z,74.38
2022-11-16T03:15:23.825Z,76.58
2022-11-16T03:18:40.528Z,76.43
2022-11-16T03:22:01.635Z,74.60
2022-11-16T03:25:22.742Z,74.95
2022-11-16T03:28:44.686Z,73.50
2022-11-16T03:32:05.876Z,72.93
2022-11-16T03:35:28.042Z,73.95
2022-11-16T03:38:51.715Z,70.85
2022-11-16T03:42:14.730Z,72.63
2022-11-16T03:45:34.446Z,71.85
2022-11-16T03:48:52.813Z,71.83
2022-11-16T03:52:11.007Z,73.55
2022-11-16T03:55:27.380Z,74.75
2022-11-16T03:58:43.793Z,71.88
2022-11-16T04:02:00.474Z,72.98
2022-11-16T04:05:32.203Z,75.00
2022-11-16T04:09:02.245Z,71.63
2022-11-16T04:12:34.656Z,72.15
2022-11-16T04:16:04.877Z,72.10
2022-11-16T04:19:35.509Z,73.68
2022-11-16T04:23:12.392Z,74.50
2022-11-16T04:26:32.047Z,70.93
2022-11-16T04:29:50.214Z,72.38
2022-11-16T04:33:20.964Z,77.07
2022-11-16T04:36:51.449Z,75.00
2022-11-16T04:40:07.712Z,77.93
2022-11-16T04:43:24.099Z,77.33
2022-11-16T04:46:58.384Z,78.63
2022-11-16T04:50:17.721Z,78.78
2022-11-16T04:53:34.512Z,77.93
2022-11-16T04:56:53.060Z,77.05
2022-11-16T05:00:11.047Z,80.43
2022-11-16T05:03:27.516Z,80.08
2022-11-16T05:10:00.374Z,75.78
2022-11-16T05:13:16.625Z,73.55
2022-11-16T05:16:32.830Z,75.65
2022-11-16T05:20:03.418Z,76.98
2022-11-16T05:23:31.478Z,77.48
2022-11-16T05:26:49.322Z,76.53
2022-11-16T05:30:07.120Z,75.83
2022-11-16T05:33:23.994Z,75.13
2022-11-16T05:36:40.344Z,76.60
2022-11-16T05:39:57.692Z,77.45
2022-11-16T05:43:15.591Z,78.00
2022-11-16T05:46:33.776Z,76.45
2022-11-16T05:49:50.322Z,77.85
2022-11-16T05:53:07.738Z,82.43
2022-11-16T05:56:25.452Z,77.08
2022-11-16T05:59:42.326Z,79.65
2022-11-16T06:02:58.435Z,81.18
2022-11-16T06:06:16.973Z,83.60
2022-11-16T06:09:34.949Z,83.28
2022-11-16T06:12:55.852Z,80.13
2022-11-16T06:16:13.757Z,78.63
2022-11-16T06:19:34.981Z,78.40
2022-11-16T06:22:52.683Z,72.05
2022-11-16T06:26:11.867Z,73.50
2022-11-16T06:29:29.325Z,74.33
2022-11-16T06:36:03.510Z,70.18
2022-11-16T06:39:21.505Z,68.88
2022-11-16T06:42:38.864Z,68.63
2022-11-16T06:46:01.799Z,68.35
2022-11-16T06:49:18.093Z,71.68
2022-11-16T06:52:35.431Z,78.85
2022-11-16T06:55:51.655Z,76.18
2022-11-16T06:59:08.164Z,96.25
2022-11-16T07:02:24.953Z,71.50
2022-11-16T07:05:44.461Z,64.60
2022-11-16T07:09:03.359Z,64.35
2022-11-16T07:12:22.045Z,66.53
2022-11-16T07:15:38.743Z,68.00
2022-11-16T07:18:57.281Z,67.53
2022-11-16T07:22:15.743Z,64.90
2022-11-16T07:25:33.898Z,67.30
2022-11-16T07:28:50.918Z,63.90
2022-11-16T07:32:09.093Z,60.05
2022-11-16T07:35:44.282Z,59.70
2022-11-16T07:39:00.942Z,52.95
2022-11-16T07:42:17.689Z,55.78
2022-11-16T07:45:52.925Z,53.88
2022-11-16T07:49:11.526Z,54.30
2022-11-16T07:52:38.638Z,54.28
2022-11-16T07:56:02.538Z,56.43
2022-11-16T07:59:19.075Z,51.48
2022-11-16T08:02:38.140Z,48.20
2022-11-16T08:09:11.196Z,53.50
2022-11-16T08:12:28.003Z,49.40
2022-11-16T08:15:44.312Z,45.78
2022-11-16T08:19:00.631Z,43.45
2022-11-16T08:22:18.486Z,41.78
2022-11-16T08:25:35.313Z,39.03
2022-11-16T08:28:54.521Z,34.20
2022-11-16T08:32:12.476Z,33.20
2022-11-16T08:35:30.005Z,31.90
2022-11-16T08:38:46.629Z,28.95
2022-11-16T08:42:03.076Z,26.93
2022-11-16T08:45:20.082Z,31.90
2022-11-16T08:48:36.734Z,26.58
2022-11-16T08:51:53.469Z,22.68
2022-11-16T08:55:11.042Z,22.45
2022-11-16T08:58:27.312Z,19.68
2022-11-16T09:01:43.589Z,18.20
2022-11-16T09:05:00.484Z,18.23
2022-11-16T09:08:16.783Z,17.78
2022-11-16T09:11:36.991Z,16.88
2022-11-16T09:14:53.506Z,17.00
2022-11-16T09:18:10.191Z,29.13
2022-11-16T09:21:29.889Z,16.78
2022-11-16T09:24:46.042Z,16.13
2022-11-16T09:28:04.115Z,14.65
2022-11-16T09:31:23.299Z,14.28
2022-11-16T09:34:40.485Z,14.00
2022-11-16T09:37:56.706Z,13.80
2022-11-16T09:41:29.517Z,14.65
2022-11-16T09:45:09.756Z,13.60
2022-11-16T09:48:28.850Z,12.15
2022-11-16T09:51:48.037Z,11.05
2022-11-16T09:55:12.002Z,9.53
2022-11-16T09:58:33.072Z,9.83
2022-11-16T10:01:55.569Z,10.35
2022-11-16T10:05:17.607Z,9.60
2022-11-16T10:08:44.951Z,10.03
2022-11-16T10:12:17.136Z,10.13
2022-11-16T10:15:58.792Z,10.33
2022-11-16T10:19:20.504Z,10.50
2022-11-16T10:22:47.460Z,10.55
2022-11-16T10:26:10.190Z,10.18
2022-11-16T10:29:39.110Z,11.43
2022-11-16T10:33:01.165Z,10.93
2022-11-16T10:36:23.035Z,86.10
2022-11-16T10:39:41.974Z,23.93
2022-11-16T10:43:08.619Z,12.28
2022-11-16T10:46:29.074Z,10.80
2022-11-16T10:49:52.602Z,10.90
2022-11-16T10:53:09.452Z,9.93
2022-11-16T10:56:32.640Z,9.70
2022-11-16T10:59:54.008Z,10.08
2022-11-16T11:03:12.630Z,9.90
2022-11-16T11:06:31.237Z,9.77
2022-11-16T11:09:50.566Z,9.63
2022-11-16T11:13:34.761Z,11.05
2022-11-16T11:16:53.422Z,10.05
2022-11-16T11:20:13.598Z,11.20
2022-11-16T11:23:32.848Z,11.43
2022-11-16T11:26:55.193Z,30.65
2022-11-16T11:30:17.007Z,16.90
2022-11-16T11:33:38.491Z,11.95
2022-11-16T11:36:59.701Z,11.00
2022-11-16T11:40:34.282Z,9.40
2022-11-16T11:43:53.079Z,9.38
2022-11-16T11:47:55.750Z,9.00
2022-11-16T11:50:58.703Z,9.15
2022-11-16T11:54:21.000Z,9.30
2022-11-16T11:57:38.167Z,9.05
2022-11-16T12:01:00.878Z,8.00
2022-11-16T12:05:02.721Z,8.00
2022-11-16T12:08:37.046Z,9.18
2022-11-16T12:12:10.400Z,11.33
2022-11-16T12:16:03.628Z,14.95
2022-11-16T12:20:00.260Z,10.08
2022-11-16T12:23:42.862Z,9.45
2022-11-16T12:27:07.275Z,9.03
2022-11-16T12:30:28.518Z,6.90
2022-11-16T12:33:50.226Z,8.10
2022-11-16T12:37:13.108Z,7.38
2022-11-16T12:40:43.413Z,8.00
2022-11-16T12:44:04.480Z,9.68
2022-11-16T12:47:29.711Z,8.55
2022-11-16T12:50:59.341Z,6.98
2022-11-16T12:54:34.740Z,6.35
2022-11-16T12:57:58.999Z,5.15
2022-11-16T13:01:21.502Z,5.73
2022-11-16T13:04:46.471Z,5.00
2022-11-16T13:08:07.722Z,5.20
2022-11-16T13:11:30.637Z,5.40
2022-11-16T13:14:51.771Z,5.63
2022-11-16T13:18:12.074Z,6.00
2022-11-16T13:21:43.780Z,5.85
2022-11-16T13:25:05.544Z,5.93
2022-11-16T13:28:33.560Z,5.93
2022-11-16T13:31:54.494Z,5.78
2022-11-16T13:35:16.634Z,6.10
2022-11-16T13:39:00.947Z,5.83
2022-11-16T13:42:21.167Z,6.65
2022-11-16T13:45:44.751Z,6.33
2022-11-16T13:49:01.558Z,5.90
2022-11-16T13:52:26.369Z,6.78
2022-11-16T13:55:43.719Z,6.13
2022-11-16T13:59:00.978Z,5.60
2022-11-16T14:02:40.739Z,5.53
2022-11-16T14:05:58.685Z,5.95
2022-11-16T14:09:33.152Z,5.40
2022-11-16T14:13:05.541Z,5.25
2022-11-16T14:16:55.421Z,14.05
2022-11-16T14:20:22.109Z,11.58
2022-11-16T14:28:10.756Z,5.58
2022-11-16T14:31:32.132Z,6.05
2022-11-16T14:35:01.557Z,5.63
2022-11-16T14:41:51.296Z,5.53
2022-11-16T14:45:23.666Z,5.70
2022-11-16T14:48:54.102Z,5.18
2022-11-16T14:52:19.729Z,5.68
2022-11-16T14:55:48.270Z,5.60
2022-11-16T14:59:13.666Z,5.68
2022-11-16T15:02:33.343Z,5.08
2022-11-16T15:05:53.694Z,7.83
2022-11-16T15:09:25.470Z,7.00
2022-11-16T15:13:02.248Z,5.28
2022-11-16T15:16:35.375Z,5.05
2022-11-16T15:20:03.459Z,5.08
2022-11-16T15:23:30.812Z,5.75
2022-11-16T15:26:50.079Z,5.03
2022-11-16T15:30:31.844Z,5.95
2022-11-16T15:33:51.708Z,5.65
2022-11-16T15:37:08.659Z,5.20
2022-11-16T15:40:28.296Z,5.23
2022-11-16T15:44:11.892Z,5.85
2022-11-16T15:47:11.238Z,6.03
2022-11-16T15:53:53.039Z,6.43
2022-11-16T15:57:15.796Z,5.13
2022-11-16T16:00:37.907Z,5.03
2022-11-16T16:04:05.213Z,7.80
2022-11-16T16:07:51.121Z,8.80
2022-11-16T16:11:21.394Z,5.40
2022-11-16T16:17:55.064Z,6.00
2022-11-16T16:21:15.943Z,4.90
2022-11-16T16:24:51.829Z,5.08
2022-11-16T16:28:38.979Z,5.23
2022-11-16T16:31:57.535Z,5.30
2022-11-16T16:35:23.004Z,5.18
2022-11-16T16:38:46.262Z,5.58
2022-11-16T16:42:06.232Z,4.98
2022-11-16T16:45:27.690Z,4.65
2022-11-16T16:48:44.902Z,5.25
2022-11-16T16:52:03.249Z,5.60
2022-11-16T16:55:23.419Z,5.85
2022-11-16T16:58:44.349Z,5.15
2022-11-16T17:02:08.211Z,4.90
2022-11-16T17:05:27.935Z,4.00
2022-11-16T17:12:00.570Z,3.58
2022-11-16T17:15:19.629Z,3.60
2022-11-16T17:18:36.449Z,3.35
2022-11-16T17:21:54.392Z,3.30
2022-11-16T17:25:12.126Z,4.43
2022-11-16T17:28:31.817Z,4.55
2022-11-16T17:35:03.635Z,4.68
2022-11-16T17:38:24.485Z,5.18
2022-11-16T17:41:48.594Z,6.20
2022-11-16T17:45:20.353Z,5.60
2022-11-16T17:48:47.953Z,4.70
2022-11-16T17:52:07.428Z,35.90
2022-11-16T17:55:27.048Z,4.45
2022-11-16T17:58:46.326Z,4.90
2022-11-16T18:02:07.572Z,3.90
2022-11-16T18:05:27.820Z,4.60
2022-11-16T18:08:51.260Z,6.93
2022-11-16T18:12:08.533Z,4.00
2022-11-16T18:15:42.467Z,3.80
2022-11-16T18:19:17.167Z,4.60
2022-11-16T18:22:34.032Z,3.50
2022-11-16T18:25:50.824Z,3.43
2022-11-16T18:29:13.648Z,3.33
2022-11-16T18:32:30.658Z,3.53
2022-11-16T18:35:58.540Z,2.80
2022-11-16T18:39:15.811Z,2.93
2022-11-16T18:42:34.931Z,4.40
2022-11-16T18:46:03.314Z,8.58
2022-11-16T18:49:25.307Z,4.05
2022-11-16T18:52:48.092Z,3.43
2022-11-16T18:56:24.094Z,3.30
2022-11-16T18:59:54.278Z,4.13
2022-11-16T19:03:11.527Z,3.88
2022-11-16T19:06:47.511Z,3.68
2022-11-16T19:10:06.772Z,2.90
2022-11-16T19:13:33.831Z,3.45
2022-11-16T19:16:55.633Z,3.25
2022-11-16T19:20:14.898Z,3.43
2022-11-16T19:23:47.942Z,4.05
2022-11-16T19:27:13.268Z,4.10
2022-11-16T19:30:56.770Z,3.93
2022-11-16T19:34:23.438Z,3.48
2022-11-16T19:40:57.520Z,4.00
2022-11-16T19:44:17.581Z,4.10
2022-11-16T19:48:00.270Z,3.47
2022-11-16T19:51:20.380Z,3.50
2022-11-16T19:54:43.470Z,3.43
2022-11-16T19:58:01.003Z,3.43
2022-11-16T20:04:21.581Z,3.83
2022-11-16T20:07:39.691Z,3.73
2022-11-16T20:10:56.733Z,3.63
2022-11-16T20:14:16.890Z,4.25
2022-11-16T20:17:35.945Z,6.05
2022-11-16T20:20:56.691Z,9.60
2022-11-16T20:24:21.471Z,5.03
2022-11-16T20:27:42.818Z,5.73
2022-11-16T20:31:00.319Z,5.20
2022-11-16T20:34:21.574Z,4.88
2022-11-16T20:37:38.178Z,5.03
2022-11-16T20:41:19.557Z,4.68
2022-11-16T20:44:38.495Z,4.48
2022-11-16T20:47:57.743Z,4.20
2022-11-16T20:51:17.619Z,4.78
2022-11-16T20:54:34.631Z,6.53
2022-11-16T20:58:01.319Z,5.53
2022-11-16T21:01:35.693Z,3.28
2022-11-16T21:05:00.567Z,2.43
2022-11-16T21:08:20.445Z,2.63
2022-11-16T21:11:42.934Z,2.50
2022-11-16T21:15:04.507Z,2.60
2022-11-16T21:18:34.168Z,2.63
2022-11-16T21:21:54.971Z,2.50
2022-11-16T21:25:15.469Z,2.40
2022-11-16T21:28:35.009Z,2.85
2022-11-16T21:31:51.277Z,2.73
2022-11-16T21:35:07.404Z,3.00
2022-11-16T21:38:23.536Z,3.20
2022-11-16T21:42:15.720Z,3.18
2022-11-16T21:45:41.964Z,2.80
2022-11-16T21:49:04.124Z,2.80
2022-11-16T21:52:20.585Z,2.33
2022-11-16T21:55:36.879Z,2.50
2022-11-16T21:58:54.376Z,2.70
2022-11-16T22:02:10.553Z,2.33
2022-11-16T22:05:41.082Z,2.60
2022-11-16T22:08:58.089Z,3.00
2022-11-16T22:12:14.949Z,2.70
2022-11-16T22:15:31.267Z,3.10
2022-11-16T22:18:47.901Z,3.23
2022-11-16T22:22:04.016Z,3.25
2022-11-16T22:25:21.739Z,3.10
2022-11-16T22:28:38.051Z,3.43
2022-11-16T22:31:54.294Z,3.38
2022-11-16T22:35:10.797Z,2.83
2022-11-16T22:38:27.156Z,2.95
2022-11-16T22:41:43.451Z,2.95
2022-11-16T22:44:59.563Z,3.20
2022-11-16T22:48:15.960Z,3.40
2022-11-16T22:51:33.992Z,3.08
2022-11-16T22:54:50.161Z,2.83
2022-11-16T22:58:06.351Z,2.58
2022-11-16T23:01:22.553Z,2.65
2022-11-16T23:04:38.855Z,2.40
2022-11-16T23:07:54.856Z,2.90
2022-11-16T23:11:27.859Z,2.20
2022-11-16T23:14:58.327Z,2.30
2022-11-16T23:18:14.866Z,2.23
2022-11-16T23:21:45.886Z,1.80
2022-11-16T23:25:16.015Z,1.90
2022-11-16T23:28:32.333Z,1.85
2022-11-16T23:31:48.735Z,1.90
2022-11-16T23:35:05.050Z,2.10
2022-11-16T23:38:21.154Z,2.18
2022-11-16T23:41:51.506Z,2.30
2022-11-16T23:45:07.785Z,2.10
2022-11-16T23:48:25.619Z,2.15
2022-11-16T23:51:41.745Z,1.90
2022-11-16T23:54:58.276Z,1.95
2022-11-16T23:58:16.408Z,1.90
